Pagrindinis puslapis
METAR-TAF:

METAR-TAF

Oro uostai :

Bratskas, Rusija

platuma: 56-22-15N, ilguma: 101-41-55E, Aukštis: 490 m

Dabartinis oras

Ataskaita buvo paskelbta 37 minutes, ne 16:30 UTC
Vėjas 10 kt iš Šiaurės Rytų, svyruoja nuo Šiaurės/Šiaurės Rytų ir Rytų
Temperatūra 12°C
Drėgmė 50%
Slėgis 1003 hPa
Matomumas 10 km arba daugiau

METAR: UIBB 051630Z 05005MPS 020V080 9999 NSC 12/02 Q1003 R30/60D NOSIG RMK QFE710/0947

Laikas: 01:07 (17:07 UTC)

Prognozė

Ataskaita buvo paskelbta 3 valandos ir 7 minutes, ne 14:00 UTC
Prognozė galioja nuo 05 metu 15 UTC su 06 metu 15 UTC
Vėjas 6 kt iš Šiaurės Rytų
Matomumas 10 km arba daugiau
Išsisklaidę debesys ne aukštis 2000 ft
Nuo 06 metu 0000 UTC
Vėjas 10 kt iš Šiaurės/Šiaurės Rytų su gūsio iki 23 kt
Matomumas 10 km arba daugiau
Su prošvaistėmis ne aukštis 1500 ft, Liūtiniai kamuoliniai debesys.
lietus

TAF: UIBB 051400Z 0515/0615 04003MPS 9999 SCT020 FM060000 02005G12MPS 9999 -SHRA BKN015CB

Orai ataskaitas ir orų prognozės (METAR, TAF).

turimą stotys yra geltonos ir raudonos taškus žemėlapyje.

Perkelti pele per norėdami pamatyti stoties vardą.

Tada spustelėkite, norėdami matyti oro stebėjimo ir prognozės.

Norėdami pakeisti žemėlapį: spustelėkite ant žalios mygtukų su juodo kryžiaus žemyn,; žalią mygtuką su brūkšneliu, jei norite nutolinti; arba žalių rodyklių gretimoms žemėlapius.


METAR-TAF: